METAR - Ísland

Uppfært síðast 21.06.2024 - kl. 08:20

SIGMET síðustu 6 klst.

Engin SIGMET skeyti bárust síðustu 6 klst.

METAR síðustu 3 klst

Frá og með 1. október 2021, munu brautarskilyrði ekki birtast í METAR skeytum.
Í staðinn mun ISAVIA gefa út SNOWTAM á síðunni SNOWTAM | Isavia.

Flugv.TímiSkeyti
BIAR2024-06-21 08.00METAR BIAR 210800Z 34005KT 9999 FEW009 SCT021 OVC031 07/05 Q1002
BIAR2024-06-21 07.00METAR BIAR 210700Z 36005KT 9999 FEW010 BKN021 OVC030 07/05 Q1002
BIAR2024-06-21 06.00METAR BIAR 210600Z 33003KT 300V010 9999 OVC019 06/05 Q1003
BIBD2024-06-21 08.00METAR BIBD 210800Z VRB02KT 9999 FEW020 BKN025 09/04 Q1000
BIBD2024-06-21 07.00METAR BIBD 210700Z VRB02KT 9999 -RA BKN025 09/05 Q1000
BIEG2024-06-21 08.00METAR BIEG 210800Z 36005KT 9999 SCT009 BKN015 OVC049 06/05 Q1003
BIEG2024-06-21 07.00METAR BIEG 210700Z 36005KT 9999 BKN008 06/05 Q1002
BIEG2024-06-21 06.00METAR BIEG 210600Z 01006KT 9999 FEW005 BKN051 06/05 Q1002
BIHN2024-06-21 08.00METAR BIHN 210800Z 29005KT 9999 HZ FEW010 OVC032 09/07 Q1001
BIIS2024-06-21 08.00METAR BIIS 210800Z VRB04KT 9999 FEW025 SCT050 09/02 Q1001 RMK ARNARNES 130DGR 12KT
BIIS2024-06-21 07.00METAR BIIS 210700Z VRB05KT 9999 FEW025 SCT050 09/02 Q1001 RMK ARNARNES 130DGR 12KT
BIKF2024-06-21 08.00METAR BIKF 210800Z 06013KT 9999 BKN049 BKN077 10/07 Q0998
BIKF2024-06-21 07.30METAR BIKF 210730Z 05011KT 9999 OVC041 09/07 Q0997
BIKF2024-06-21 07.00METAR BIKF 210700Z 05011KT 9999 OVC045 09/07 Q0998
BIKF2024-06-21 06.30METAR BIKF 210630Z 06010KT 9999 BKN042 OVC080 09/08 Q0998
BIKF2024-06-21 06.00METAR BIKF 210600Z 06008KT 9999 -DZ BKN043 OVC080 09/08 Q0998
BIKF2024-06-21 05.30METAR BIKF 210530Z 06008KT 9999 -DZRA FEW019 BKN043 OVC075 09/07 Q0998
BIRK2024-06-21 08.00METAR BIRK 210800Z 06009KT 9999 SCT034 BKN061 10/06 Q0998
BIRK2024-06-21 07.00METAR BIRK 210700Z 07008KT 9999 -RA FEW020 BKN057 10/07 Q0998
BIRK2024-06-21 06.00METAR BIRK 210600Z 10004KT 060V130 9999 -DZ FEW023 BKN050 10/08 Q0998
BIVM2024-06-21 08.00METAR BIVM 210800Z 10015KT 9999 BKN035 09/07 Q0996

Textaspár eru skrifaðar af vakthafandi veðurfræðingi á Veðurstofu Íslands.




Aðrir tengdir vefir



Þetta vefsvæði byggir á Eplica